sensor_id;sensor_type;location;lat;lon;timestamp;temperature;humidity
80134;SHT30;69443;51.442;10.564;2023-05-10T00:01:52;15.28;46.98
80134;SHT30;69443;51.442;10.564;2023-05-10T00:04:17;15.26;47.16
80134;SHT30;69443;51.442;10.564;2023-05-10T00:06:43;15.23;47.10
80134;SHT30;69443;51.442;10.564;2023-05-10T00:09:08;15.22;47.13
80134;SHT30;69443;51.442;10.564;2023-05-10T00:11:33;15.22;47.16
80134;SHT30;69443;51.442;10.564;2023-05-10T00:13:59;15.17;47.23
80134;SHT30;69443;51.442;10.564;2023-05-10T00:16:24;15.11;47.31
80134;SHT30;69443;51.442;10.564;2023-05-10T00:18:49;15.08;47.38
80134;SHT30;69443;51.442;10.564;2023-05-10T00:21:15;15.08;47.36
80134;SHT30;69443;51.442;10.564;2023-05-10T00:23:40;15.04;47.48
80134;SHT30;69443;51.442;10.564;2023-05-10T00:26:05;15.02;47.58
80134;SHT30;69443;51.442;10.564;2023-05-10T00:28:31;15.00;47.71
80134;SHT30;69443;51.442;10.564;2023-05-10T00:30:56;15.00;47.60
80134;SHT30;69443;51.442;10.564;2023-05-10T00:33:21;14.97;47.66
80134;SHT30;69443;51.442;10.564;2023-05-10T00:35:47;14.92;47.74
80134;SHT30;69443;51.442;10.564;2023-05-10T00:38:13;14.90;47.75
80134;SHT30;69443;51.442;10.564;2023-05-10T00:40:38;14.88;47.70
80134;SHT30;69443;51.442;10.564;2023-05-10T00:43:04;14.88;47.79
80134;SHT30;69443;51.442;10.564;2023-05-10T00:45:31;14.85;47.86
80134;SHT30;69443;51.442;10.564;2023-05-10T00:47:57;14.82;47.93
80134;SHT30;69443;51.442;10.564;2023-05-10T00:50:23;14.83;47.88
80134;SHT30;69443;51.442;10.564;2023-05-10T00:52:49;14.80;48.00
80134;SHT30;69443;51.442;10.564;2023-05-10T00:55:14;14.79;48.02
80134;SHT30;69443;51.442;10.564;2023-05-10T00:57:40;14.76;48.09
80134;SHT30;69443;51.442;10.564;2023-05-10T01:00:05;14.71;48.15
80134;SHT30;69443;51.442;10.564;2023-05-10T01:02:33;14.68;48.33
80134;SHT30;69443;51.442;10.564;2023-05-10T01:04:58;14.68;48.34
80134;SHT30;69443;51.442;10.564;2023-05-10T01:07:25;14.65;48.37
80134;SHT30;69443;51.442;10.564;2023-05-10T01:09:50;14.61;48.36
80134;SHT30;69443;51.442;10.564;2023-05-10T01:12:16;14.62;48.31
80134;SHT30;69443;51.442;10.564;2023-05-10T01:14:41;14.65;48.27
80134;SHT30;69443;51.442;10.564;2023-05-10T01:17:07;14.64;48.30
80134;SHT30;69443;51.442;10.564;2023-05-10T01:19:35;14.60;48.47
80134;SHT30;69443;51.442;10.564;2023-05-10T01:28:06;14.55;48.67
80134;SHT30;69443;51.442;10.564;2023-05-10T01:31:17;14.55;48.76
80134;SHT30;69443;51.442;10.564;2023-05-10T01:33:48;14.49;48.74
80134;SHT30;69443;51.442;10.564;2023-05-10T01:36:47;14.51;48.75
80134;SHT30;69443;51.442;10.564;2023-05-10T01:39:27;14.46;48.73
80134;SHT30;69443;51.442;10.564;2023-05-10T01:42:08;14.45;48.72
80134;SHT30;69443;51.442;10.564;2023-05-10T01:44:37;14.44;48.87
80134;SHT30;69443;51.442;10.564;2023-05-10T01:47:16;14.40;48.91
80134;SHT30;69443;51.442;10.564;2023-05-10T01:49:53;14.37;49.13
80134;SHT30;69443;51.442;10.564;2023-05-10T01:52:26;14.37;48.96
80134;SHT30;69443;51.442;10.564;2023-05-10T01:54:56;14.35;49.05
80134;SHT30;69443;51.442;10.564;2023-05-10T01:57:26;14.35;49.00
80134;SHT30;69443;51.442;10.564;2023-05-10T01:59:53;14.33;48.98
80134;SHT30;69443;51.442;10.564;2023-05-10T02:02:20;14.31;49.16
80134;SHT30;69443;51.442;10.564;2023-05-10T02:04:47;14.27;49.23
80134;SHT30;69443;51.442;10.564;2023-05-10T02:07:15;14.28;49.34
80134;SHT30;69443;51.442;10.564;2023-05-10T02:09:43;14.27;49.25
80134;SHT30;69443;51.442;10.564;2023-05-10T02:12:09;14.26;49.26
80134;SHT30;69443;51.442;10.564;2023-05-10T02:14:36;14.26;49.27
80134;SHT30;69443;51.442;10.564;2023-05-10T02:17:04;14.26;49.50
80134;SHT30;69443;51.442;10.564;2023-05-10T02:19:30;14.23;49.42
80134;SHT30;69443;51.442;10.564;2023-05-10T02:21:57;14.24;49.51
80134;SHT30;69443;51.442;10.564;2023-05-10T02:24:24;14.21;49.52
80134;SHT30;69443;51.442;10.564;2023-05-10T02:26:51;14.21;49.58
80134;SHT30;69443;51.442;10.564;2023-05-10T02:29:19;14.23;49.48
80134;SHT30;69443;51.442;10.564;2023-05-10T02:31:45;14.18;49.58
80134;SHT30;69443;51.442;10.564;2023-05-10T02:34:11;14.17;49.68
80134;SHT30;69443;51.442;10.564;2023-05-10T02:36:38;14.16;49.71
80134;SHT30;69443;51.442;10.564;2023-05-10T02:39:04;14.17;49.77
80134;SHT30;69443;51.442;10.564;2023-05-10T02:41:35;14.16;49.68
80134;SHT30;69443;51.442;10.564;2023-05-10T02:44:02;14.14;49.76
80134;SHT30;69443;51.442;10.564;2023-05-10T02:46:28;14.16;49.81
80134;SHT30;69443;51.442;10.564;2023-05-10T02:48:53;14.13;49.78
80134;SHT30;69443;51.442;10.564;2023-05-10T02:51:20;14.13;49.89
80134;SHT30;69443;51.442;10.564;2023-05-10T02:53:50;14.12;49.90
80134;SHT30;69443;51.442;10.564;2023-05-10T02:56:25;14.10;50.02
80134;SHT30;69443;51.442;10.564;2023-05-10T02:58:54;14.09;49.95
80134;SHT30;69443;51.442;10.564;2023-05-10T03:01:20;14.10;49.98
80134;SHT30;69443;51.442;10.564;2023-05-10T03:03:45;14.10;50.03
80134;SHT30;69443;51.442;10.564;2023-05-10T03:06:11;14.07;50.00
80134;SHT30;69443;51.442;10.564;2023-05-10T03:08:36;14.07;50.13
80134;SHT30;69443;51.442;10.564;2023-05-10T03:11:28;14.07;50.51
80134;SHT30;69443;51.442;10.564;2023-05-10T03:14:07;14.07;50.17
80134;SHT30;69443;51.442;10.564;2023-05-10T03:16:45;14.07;50.54
80134;SHT30;69443;51.442;10.564;2023-05-10T03:19:18;14.03;50.45
80134;SHT30;69443;51.442;10.564;2023-05-10T03:21:50;14.05;50.39
80134;SHT30;69443;51.442;10.564;2023-05-10T03:24:18;14.03;50.28
80134;SHT30;69443;51.442;10.564;2023-05-10T03:26:45;14.05;50.37
80134;SHT30;69443;51.442;10.564;2023-05-10T03:29:12;14.06;50.48
80134;SHT30;69443;51.442;10.564;2023-05-10T03:31:39;14.07;50.46
80134;SHT30;69443;51.442;10.564;2023-05-10T03:34:04;14.06;50.54
80134;SHT30;69443;51.442;10.564;2023-05-10T03:36:31;14.05;50.57
80134;SHT30;69443;51.442;10.564;2023-05-10T03:38:56;14.02;50.66
80134;SHT30;69443;51.442;10.564;2023-05-10T03:41:22;14.03;50.65
80134;SHT30;69443;51.442;10.564;2023-05-10T03:43:47;14.05;50.73
80134;SHT30;69443;51.442;10.564;2023-05-10T03:46:12;14.03;50.72
80134;SHT30;69443;51.442;10.564;2023-05-10T03:48:38;14.05;50.78
80134;SHT30;69443;51.442;10.564;2023-05-10T03:51:03;14.03;50.82
80134;SHT30;69443;51.442;10.564;2023-05-10T03:53:29;14.05;50.83
80134;SHT30;69443;51.442;10.564;2023-05-10T03:55:54;14.05;50.85
80134;SHT30;69443;51.442;10.564;2023-05-10T03:58:19;14.05;50.90
80134;SHT30;69443;51.442;10.564;2023-05-10T04:00:45;14.06;50.92
80134;SHT30;69443;51.442;10.564;2023-05-10T04:03:11;14.07;51.02
80134;SHT30;69443;51.442;10.564;2023-05-10T04:05:37;14.09;50.98
80134;SHT30;69443;51.442;10.564;2023-05-10T04:08:03;14.07;50.93
80134;SHT30;69443;51.442;10.564;2023-05-10T04:10:29;14.07;51.03
80134;SHT30;69443;51.442;10.564;2023-05-10T04:12:54;14.07;51.08
80134;SHT30;69443;51.442;10.564;2023-05-10T04:15:19;14.10;51.13
80134;SHT30;69443;51.442;10.564;2023-05-10T04:17:45;14.10;51.21
80134;SHT30;69443;51.442;10.564;2023-05-10T04:20:11;14.12;51.11
80134;SHT30;69443;51.442;10.564;2023-05-10T04:22:36;14.10;51.21
80134;SHT30;69443;51.442;10.564;2023-05-10T04:25:02;14.13;51.24
80134;SHT30;69443;51.442;10.564;2023-05-10T04:27:27;14.10;51.27
80134;SHT30;69443;51.442;10.564;2023-05-10T04:29:53;14.13;51.19
80134;SHT30;69443;51.442;10.564;2023-05-10T04:32:18;14.13;51.25
80134;SHT30;69443;51.442;10.564;2023-05-10T04:34:45;14.14;51.41
80134;SHT30;69443;51.442;10.564;2023-05-10T04:37:10;14.14;51.40
80134;SHT30;69443;51.442;10.564;2023-05-10T04:39:36;14.17;51.51
80134;SHT30;69443;51.442;10.564;2023-05-10T04:42:03;14.14;51.49
80134;SHT30;69443;51.442;10.564;2023-05-10T04:44:28;14.18;51.48
80134;SHT30;69443;51.442;10.564;2023-05-10T04:46:55;14.18;51.57
80134;SHT30;69443;51.442;10.564;2023-05-10T04:49:21;14.20;51.61
80134;SHT30;69443;51.442;10.564;2023-05-10T04:51:46;14.21;51.67
80134;SHT30;69443;51.442;10.564;2023-05-10T04:54:12;14.23;51.73
80134;SHT30;69443;51.442;10.564;2023-05-10T04:56:37;14.24;51.77
80134;SHT30;69443;51.442;10.564;2023-05-10T04:59:02;14.27;51.79
80134;SHT30;69443;51.442;10.564;2023-05-10T05:01:28;14.30;51.88
80134;SHT30;69443;51.442;10.564;2023-05-10T05:03:53;14.28;52.01
80134;SHT30;69443;51.442;10.564;2023-05-10T05:06:19;14.31;52.09
80134;SHT30;69443;51.442;10.564;2023-05-10T05:08:46;14.31;52.25
80134;SHT30;69443;51.442;10.564;2023-05-10T05:11:11;14.30;52.40
80134;SHT30;69443;51.442;10.564;2023-05-10T05:13:36;14.33;52.47
80134;SHT30;69443;51.442;10.564;2023-05-10T05:16:02;14.33;52.56
80134;SHT30;69443;51.442;10.564;2023-05-10T05:18:28;14.34;52.56
80134;SHT30;69443;51.442;10.564;2023-05-10T05:20:53;14.37;52.60
80134;SHT30;69443;51.442;10.564;2023-05-10T05:23:19;14.37;52.65
80134;SHT30;69443;51.442;10.564;2023-05-10T05:25:46;14.38;52.79
80134;SHT30;69443;51.442;10.564;2023-05-10T05:28:11;14.40;52.91
80134;SHT30;69443;51.442;10.564;2023-05-10T05:30:36;14.42;52.89
80134;SHT30;69443;51.442;10.564;2023-05-10T05:33:02;14.41;52.97
80134;SHT30;69443;51.442;10.564;2023-05-10T05:35:27;14.45;53.08
80134;SHT30;69443;51.442;10.564;2023-05-10T05:37:53;14.45;53.08
80134;SHT30;69443;51.442;10.564;2023-05-10T05:40:18;14.48;53.19
80134;SHT30;69443;51.442;10.564;2023-05-10T05:42:43;14.46;53.30
80134;SHT30;69443;51.442;10.564;2023-05-10T05:45:09;14.49;53.67
80134;SHT30;69443;51.442;10.564;2023-05-10T05:47:38;14.49;53.77
80134;SHT30;69443;51.442;10.564;2023-05-10T05:50:04;14.51;53.80
80134;SHT30;69443;51.442;10.564;2023-05-10T05:52:30;14.51;53.81
80134;SHT30;69443;51.442;10.564;2023-05-10T05:54:55;14.51;54.08
80134;SHT30;69443;51.442;10.564;2023-05-10T05:57:20;14.55;54.16
80134;SHT30;69443;51.442;10.564;2023-05-10T05:59:46;14.57;54.43
80134;SHT30;69443;51.442;10.564;2023-05-10T06:02:12;14.58;54.59
80134;SHT30;69443;51.442;10.564;2023-05-10T06:04:38;14.58;54.61
80134;SHT30;69443;51.442;10.564;2023-05-10T06:07:03;14.58;54.75
80134;SHT30;69443;51.442;10.564;2023-05-10T06:09:28;14.60;54.97
80134;SHT30;69443;51.442;10.564;2023-05-10T06:11:54;14.60;54.80
80134;SHT30;69443;51.442;10.564;2023-05-10T06:14:22;14.61;55.31
80134;SHT30;69443;51.442;10.564;2023-05-10T06:16:48;14.64;55.25
80134;SHT30;69443;51.442;10.564;2023-05-10T06:19:13;14.62;55.41
80134;SHT30;69443;51.442;10.564;2023-05-10T06:21:38;14.65;55.64
80134;SHT30;69443;51.442;10.564;2023-05-10T06:24:05;14.64;55.68
80134;SHT30;69443;51.442;10.564;2023-05-10T06:26:32;14.65;55.67
80134;SHT30;69443;51.442;10.564;2023-05-10T06:28:58;14.71;55.78
80134;SHT30;69443;51.442;10.564;2023-05-10T06:31:23;14.69;55.81
80134;SHT30;69443;51.442;10.564;2023-05-10T06:33:49;14.71;55.81
80134;SHT30;69443;51.442;10.564;2023-05-10T06:36:14;14.73;56.09
80134;SHT30;69443;51.442;10.564;2023-05-10T06:38:40;14.76;56.18
80134;SHT30;69443;51.442;10.564;2023-05-10T06:41:05;14.76;56.05
80134;SHT30;69443;51.442;10.564;2023-05-10T06:43:31;14.80;56.10
80134;SHT30;69443;51.442;10.564;2023-05-10T06:45:56;14.79;56.45
80134;SHT30;69443;51.442;10.564;2023-05-10T06:48:22;14.83;56.31
80134;SHT30;69443;51.442;10.564;2023-05-10T06:50:48;14.82;56.50
80134;SHT30;69443;51.442;10.564;2023-05-10T06:53:13;14.86;56.46
80134;SHT30;69443;51.442;10.564;2023-05-10T06:55:39;14.88;56.48
80134;SHT30;69443;51.442;10.564;2023-05-10T06:58:04;14.90;56.62
80134;SHT30;69443;51.442;10.564;2023-05-10T07:00:30;14.89;56.83
80134;SHT30;69443;51.442;10.564;2023-05-10T07:02:55;14.90;56.60
80134;SHT30;69443;51.442;10.564;2023-05-10T07:05:21;14.95;56.49
80134;SHT30;69443;51.442;10.564;2023-05-10T07:07:46;14.93;56.29
80134;SHT30;69443;51.442;10.564;2023-05-10T07:10:11;14.97;56.27
80134;SHT30;69443;51.442;10.564;2023-05-10T07:12:37;15.00;56.15
80134;SHT30;69443;51.442;10.564;2023-05-10T07:15:03;15.04;56.28
80134;SHT30;69443;51.442;10.564;2023-05-10T07:17:29;15.04;56.32
80134;SHT30;69443;51.442;10.564;2023-05-10T07:19:54;15.06;56.31
80134;SHT30;69443;51.442;10.564;2023-05-10T07:22:20;15.11;56.30
80134;SHT30;69443;51.442;10.564;2023-05-10T07:24:45;15.11;56.21
80134;SHT30;69443;51.442;10.564;2023-05-10T07:27:11;15.16;56.15
80134;SHT30;69443;51.442;10.564;2023-05-10T07:29:38;15.17;56.23
80134;SHT30;69443;51.442;10.564;2023-05-10T07:32:04;15.22;56.10
80134;SHT30;69443;51.442;10.564;2023-05-10T07:34:30;15.24;56.02
80134;SHT30;69443;51.442;10.564;2023-05-10T07:36:59;15.26;56.12
80134;SHT30;69443;51.442;10.564;2023-05-10T07:39:26;15.30;55.89
80134;SHT30;69443;51.442;10.564;2023-05-10T07:41:52;15.33;55.83
80134;SHT30;69443;51.442;10.564;2023-05-10T07:44:18;15.35;55.81
80134;SHT30;69443;51.442;10.564;2023-05-10T07:46:45;15.35;55.86
80134;SHT30;69443;51.442;10.564;2023-05-10T07:49:11;15.35;55.80
80134;SHT30;69443;51.442;10.564;2023-05-10T07:51:36;15.40;55.98
80134;SHT30;69443;51.442;10.564;2023-05-10T07:54:01;15.42;56.02
80134;SHT30;69443;51.442;10.564;2023-05-10T07:56:30;15.42;56.40
80134;SHT30;69443;51.442;10.564;2023-05-10T07:58:57;15.44;56.39
80134;SHT30;69443;51.442;10.564;2023-05-10T08:01:23;15.44;56.43
80134;SHT30;69443;51.442;10.564;2023-05-10T08:03:49;15.44;56.50
80134;SHT30;69443;51.442;10.564;2023-05-10T08:06:17;15.45;56.62
80134;SHT30;69443;51.442;10.564;2023-05-10T08:08:42;15.50;56.55
80134;SHT30;69443;51.442;10.564;2023-05-10T08:11:08;15.50;56.46
80134;SHT30;69443;51.442;10.564;2023-05-10T08:13:33;15.54;56.39
80134;SHT30;69443;51.442;10.564;2023-05-10T08:15:59;15.52;56.33
80134;SHT30;69443;51.442;10.564;2023-05-10T08:18:24;15.58;56.37
80134;SHT30;69443;51.442;10.564;2023-05-10T08:20:49;15.58;56.49
80134;SHT30;69443;51.442;10.564;2023-05-10T08:23:15;15.61;56.53
80134;SHT30;69443;51.442;10.564;2023-05-10T08:25:40;15.58;56.75
80134;SHT30;69443;51.442;10.564;2023-05-10T08:28:06;15.58;57.24
80134;SHT30;69443;51.442;10.564;2023-05-10T08:30:31;15.61;57.58
80134;SHT30;69443;51.442;10.564;2023-05-10T08:32:57;15.61;57.13
80134;SHT30;69443;51.442;10.564;2023-05-10T08:35:22;15.65;57.04
80134;SHT30;69443;51.442;10.564;2023-05-10T08:37:48;15.63;56.73
80134;SHT30;69443;51.442;10.564;2023-05-10T08:40:13;15.68;56.57
80134;SHT30;69443;51.442;10.564;2023-05-10T08:42:43;15.70;56.86
80134;SHT30;69443;51.442;10.564;2023-05-10T08:45:11;15.76;55.82
80134;SHT30;69443;51.442;10.564;2023-05-10T08:47:37;15.79;56.03
80134;SHT30;69443;51.442;10.564;2023-05-10T08:50:04;15.82;56.07
80134;SHT30;69443;51.442;10.564;2023-05-10T08:52:30;15.86;56.02
80134;SHT30;69443;51.442;10.564;2023-05-10T08:54:57;15.90;55.98
80134;SHT30;69443;51.442;10.564;2023-05-10T08:57:22;15.93;55.79
80134;SHT30;69443;51.442;10.564;2023-05-10T08:59:47;15.97;55.63
80134;SHT30;69443;51.442;10.564;2023-05-10T09:02:13;16.04;55.45
80134;SHT30;69443;51.442;10.564;2023-05-10T09:04:39;16.06;55.37
80134;SHT30;69443;51.442;10.564;2023-05-10T09:07:06;16.13;55.26
80134;SHT30;69443;51.442;10.564;2023-05-10T09:09:31;16.20;55.18
80134;SHT30;69443;51.442;10.564;2023-05-10T09:11:57;16.22;55.17
80134;SHT30;69443;51.442;10.564;2023-05-10T09:14:25;16.24;55.10
80134;SHT30;69443;51.442;10.564;2023-05-10T09:16:51;16.31;55.06
80134;SHT30;69443;51.442;10.564;2023-05-10T09:19:17;16.37;54.95
80134;SHT30;69443;51.442;10.564;2023-05-10T09:21:43;16.44;54.75
80134;SHT30;69443;51.442;10.564;2023-05-10T09:24:08;16.48;54.66
80134;SHT30;69443;51.442;10.564;2023-05-10T09:26:34;16.54;54.61
80134;SHT30;69443;51.442;10.564;2023-05-10T09:29:01;16.61;54.58
80134;SHT30;69443;51.442;10.564;2023-05-10T09:34:18;16.73;54.51
80134;SHT30;69443;51.442;10.564;2023-05-10T09:36:55;16.82;55.21
80134;SHT30;69443;51.442;10.564;2023-05-10T09:39:30;16.84;55.05
80134;SHT30;69443;51.442;10.564;2023-05-10T09:41:56;16.90;54.22
80134;SHT30;69443;51.442;10.564;2023-05-10T09:44:21;16.96;54.12
80134;SHT30;69443;51.442;10.564;2023-05-10T09:46:50;17.02;54.34
80134;SHT30;69443;51.442;10.564;2023-05-10T09:49:18;17.06;54.04
80134;SHT30;69443;51.442;10.564;2023-05-10T09:51:44;17.16;53.87
80134;SHT30;69443;51.442;10.564;2023-05-10T09:54:16;17.26;54.03
80134;SHT30;69443;51.442;10.564;2023-05-10T09:56:42;17.31;53.69
80134;SHT30;69443;51.442;10.564;2023-05-10T09:59:10;17.41;54.10
80134;SHT30;69443;51.442;10.564;2023-05-10T10:01:36;17.48;53.97
80134;SHT30;69443;51.442;10.564;2023-05-10T10:04:06;17.58;54.17
80134;SHT30;69443;51.442;10.564;2023-05-10T10:06:38;17.71;54.77
80134;SHT30;69443;51.442;10.564;2023-05-10T10:09:08;17.82;54.24
80134;SHT30;69443;51.442;10.564;2023-05-10T10:11:35;17.90;54.10
80134;SHT30;69443;51.442;10.564;2023-05-10T10:14:01;18.03;54.20
80134;SHT30;69443;51.442;10.564;2023-05-10T10:16:28;18.13;54.37
80134;SHT30;69443;51.442;10.564;2023-05-10T10:18:55;18.23;54.17
80134;SHT30;69443;51.442;10.564;2023-05-10T10:21:20;18.31;54.21
80134;SHT30;69443;51.442;10.564;2023-05-10T10:23:46;18.41;54.21
80134;SHT30;69443;51.442;10.564;2023-05-10T10:26:12;18.49;54.15
80134;SHT30;69443;51.442;10.564;2023-05-10T10:31:46;18.62;54.57
80134;SHT30;69443;51.442;10.564;2023-05-10T10:34:25;18.66;54.23
80134;SHT30;69443;51.442;10.564;2023-05-10T10:36:52;18.72;53.51
80134;SHT30;69443;51.442;10.564;2023-05-10T10:39:21;18.76;53.53
80134;SHT30;69443;51.442;10.564;2023-05-10T10:41:53;18.82;53.69
80134;SHT30;69443;51.442;10.564;2023-05-10T10:47:09;18.97;53.91
80134;SHT30;69443;51.442;10.564;2023-05-10T10:52:14;19.17;53.73
80134;SHT30;69443;51.442;10.564;2023-05-10T10:54:41;19.30;53.14
80134;SHT30;69443;51.442;10.564;2023-05-10T10:57:14;19.42;53.32
80134;SHT30;69443;51.442;10.564;2023-05-10T10:59:43;19.55;53.12
80134;SHT30;69443;51.442;10.564;2023-05-10T11:02:09;19.67;52.97
80134;SHT30;69443;51.442;10.564;2023-05-10T11:04:43;19.77;53.29
80134;SHT30;69443;51.442;10.564;2023-05-10T11:07:18;19.87;53.06
80134;SHT30;69443;51.442;10.564;2023-05-10T11:09:46;19.96;52.75
80134;SHT30;69443;51.442;10.564;2023-05-10T11:12:12;20.03;52.76
80134;SHT30;69443;51.442;10.564;2023-05-10T11:14:37;20.08;52.72
80134;SHT30;69443;51.442;10.564;2023-05-10T11:17:22;20.10;53.16
80134;SHT30;69443;51.442;10.564;2023-05-10T11:20:23;20.17;52.80
80134;SHT30;69443;51.442;10.564;2023-05-10T11:22:54;20.17;52.71
80134;SHT30;69443;51.442;10.564;2023-05-10T11:25:27;20.18;52.82
80134;SHT30;69443;51.442;10.564;2023-05-10T11:27:53;20.22;52.62
80134;SHT30;69443;51.442;10.564;2023-05-10T11:30:19;20.22;52.60
80134;SHT30;69443;51.442;10.564;2023-05-10T11:32:44;20.31;52.63
80134;SHT30;69443;51.442;10.564;2023-05-10T11:35:11;20.32;52.65
80134;SHT30;69443;51.442;10.564;2023-05-10T11:37:38;20.38;52.58
80134;SHT30;69443;51.442;10.564;2023-05-10T11:40:08;20.42;52.65
80134;SHT30;69443;51.442;10.564;2023-05-10T11:42:37;20.46;52.68
80134;SHT30;69443;51.442;10.564;2023-05-10T11:45:02;20.52;52.60
80134;SHT30;69443;51.442;10.564;2023-05-10T11:47:29;20.61;52.60
80134;SHT30;69443;51.442;10.564;2023-05-10T11:49:54;20.63;52.47
80134;SHT30;69443;51.442;10.564;2023-05-10T11:52:20;20.70;52.41
80134;SHT30;69443;51.442;10.564;2023-05-10T11:54:51;20.75;52.30
80134;SHT30;69443;51.442;10.564;2023-05-10T11:57:18;20.83;52.20
80134;SHT30;69443;51.442;10.564;2023-05-10T11:59:44;20.90;52.16
80134;SHT30;69443;51.442;10.564;2023-05-10T12:02:11;20.98;52.13
80134;SHT30;69443;51.442;10.564;2023-05-10T12:04:36;21.08;52.11
80134;SHT30;69443;51.442;10.564;2023-05-10T12:07:02;21.17;52.13
80134;SHT30;69443;51.442;10.564;2023-05-10T12:09:27;21.25;52.06
80134;SHT30;69443;51.442;10.564;2023-05-10T12:11:55;21.31;52.00
80134;SHT30;69443;51.442;10.564;2023-05-10T12:14:22;21.42;51.93
80134;SHT30;69443;51.442;10.564;2023-05-10T12:16:47;21.49;51.87
80134;SHT30;69443;51.442;10.564;2023-05-10T12:19:18;21.59;51.60
80134;SHT30;69443;51.442;10.564;2023-05-10T12:21:46;21.70;51.41
80134;SHT30;69443;51.442;10.564;2023-05-10T12:24:12;21.80;51.35
80134;SHT30;69443;51.442;10.564;2023-05-10T12:26:37;21.90;51.34
80134;SHT30;69443;51.442;10.564;2023-05-10T12:29:16;21.98;51.30
80134;SHT30;69443;51.442;10.564;2023-05-10T12:32:00;22.07;51.30
80134;SHT30;69443;51.442;10.564;2023-05-10T12:34:33;22.14;50.91
80134;SHT30;69443;51.442;10.564;2023-05-10T12:37:00;22.20;50.96
80134;SHT30;69443;51.442;10.564;2023-05-10T12:39:25;22.24;50.93
80134;SHT30;69443;51.442;10.564;2023-05-10T12:41:51;22.34;50.81
80134;SHT30;69443;51.442;10.564;2023-05-10T12:44:17;22.39;50.85
80134;SHT30;69443;51.442;10.564;2023-05-10T12:46:43;22.46;50.83
80134;SHT30;69443;51.442;10.564;2023-05-10T12:49:08;22.52;50.82
80134;SHT30;69443;51.442;10.564;2023-05-10T12:51:34;22.57;50.65
80134;SHT30;69443;51.442;10.564;2023-05-10T12:53:59;22.67;50.56
80134;SHT30;69443;51.442;10.564;2023-05-10T12:56:25;22.76;50.55
80134;SHT30;69443;51.442;10.564;2023-05-10T12:58:50;22.83;50.44
80134;SHT30;69443;51.442;10.564;2023-05-10T13:01:16;22.89;50.32
80134;SHT30;69443;51.442;10.564;2023-05-10T13:03:42;22.91;50.35
80134;SHT30;69443;51.442;10.564;2023-05-10T13:06:08;22.97;50.31
80134;SHT30;69443;51.442;10.564;2023-05-10T13:08:33;23.04;50.28
80134;SHT30;69443;51.442;10.564;2023-05-10T13:11:00;23.07;50.25
80134;SHT30;69443;51.442;10.564;2023-05-10T13:13:26;23.10;50.28
80134;SHT30;69443;51.442;10.564;2023-05-10T13:15:51;23.11;50.16
80134;SHT30;69443;51.442;10.564;2023-05-10T13:18:17;23.12;50.16
80134;SHT30;69443;51.442;10.564;2023-05-10T13:20:42;23.14;50.10
80134;SHT30;69443;51.442;10.564;2023-05-10T13:23:09;23.14;50.13
80134;SHT30;69443;51.442;10.564;2023-05-10T13:25:35;23.18;50.13
80134;SHT30;69443;51.442;10.564;2023-05-10T13:28:01;23.18;50.05
80134;SHT30;69443;51.442;10.564;2023-05-10T13:30:26;23.17;50.00
80134;SHT30;69443;51.442;10.564;2023-05-10T13:32:52;23.21;50.02
80134;SHT30;69443;51.442;10.564;2023-05-10T13:35:17;23.21;50.06
80134;SHT30;69443;51.442;10.564;2023-05-10T13:37:42;23.25;49.98
80134;SHT30;69443;51.442;10.564;2023-05-10T13:40:08;23.25;49.79
80134;SHT30;69443;51.442;10.564;2023-05-10T13:42:34;23.28;49.69
80134;SHT30;69443;51.442;10.564;2023-05-10T13:45:00;23.31;49.53
80134;SHT30;69443;51.442;10.564;2023-05-10T13:47:28;23.32;49.46
80134;SHT30;69443;51.442;10.564;2023-05-10T13:49:54;23.35;49.60
80134;SHT30;69443;51.442;10.564;2023-05-10T13:52:19;23.39;49.67
80134;SHT30;69443;51.442;10.564;2023-05-10T13:54:45;23.42;49.66
80134;SHT30;69443;51.442;10.564;2023-05-10T13:57:11;23.44;49.61
80134;SHT30;69443;51.442;10.564;2023-05-10T13:59:39;23.51;49.48
80134;SHT30;69443;51.442;10.564;2023-05-10T14:02:04;23.53;49.33
80134;SHT30;69443;51.442;10.564;2023-05-10T14:04:30;23.59;48.81
80134;SHT30;69443;51.442;10.564;2023-05-10T14:06:56;23.62;48.42
80134;SHT30;69443;51.442;10.564;2023-05-10T14:09:21;23.66;48.19
80134;SHT30;69443;51.442;10.564;2023-05-10T14:11:47;23.72;48.55
80134;SHT30;69443;51.442;10.564;2023-05-10T14:14:12;23.76;48.27
80134;SHT30;69443;51.442;10.564;2023-05-10T14:16:43;23.77;48.37
80134;SHT30;69443;51.442;10.564;2023-05-10T14:19:09;23.79;48.37
80134;SHT30;69443;51.442;10.564;2023-05-10T14:21:36;23.80;48.26
80134;SHT30;69443;51.442;10.564;2023-05-10T14:24:02;23.79;48.34
80134;SHT30;69443;51.442;10.564;2023-05-10T14:26:27;23.79;48.49
80134;SHT30;69443;51.442;10.564;2023-05-10T14:28:53;23.79;48.63
80134;SHT30;69443;51.442;10.564;2023-05-10T14:31:18;23.74;48.56
80134;SHT30;69443;51.442;10.564;2023-05-10T14:33:48;23.79;48.50
80134;SHT30;69443;51.442;10.564;2023-05-10T14:36:14;23.76;48.56
80134;SHT30;69443;51.442;10.564;2023-05-10T14:38:40;23.77;48.60
80134;SHT30;69443;51.442;10.564;2023-05-10T14:41:06;23.76;48.53
80134;SHT30;69443;51.442;10.564;2023-05-10T14:43:31;23.72;48.27
80134;SHT30;69443;51.442;10.564;2023-05-10T14:45:57;23.72;48.04
80134;SHT30;69443;51.442;10.564;2023-05-10T14:48:22;23.73;48.18
80134;SHT30;69443;51.442;10.564;2023-05-10T14:50:48;23.74;48.16
80134;SHT30;69443;51.442;10.564;2023-05-10T14:53:15;23.72;48.09
80134;SHT30;69443;51.442;10.564;2023-05-10T14:55:40;23.73;48.21
80134;SHT30;69443;51.442;10.564;2023-05-10T14:58:05;23.73;48.32
80134;SHT30;69443;51.442;10.564;2023-05-10T15:00:31;23.74;48.27
80134;SHT30;69443;51.442;10.564;2023-05-10T15:02:56;23.74;48.31
80134;SHT30;69443;51.442;10.564;2023-05-10T15:05:22;23.73;48.11
80134;SHT30;69443;51.442;10.564;2023-05-10T15:07:48;23.73;48.05
80134;SHT30;69443;51.442;10.564;2023-05-10T15:10:14;23.73;47.97
80134;SHT30;69443;51.442;10.564;2023-05-10T15:12:39;23.70;48.07
80134;SHT30;69443;51.442;10.564;2023-05-10T15:15:06;23.72;48.01
80134;SHT30;69443;51.442;10.564;2023-05-10T15:17:31;23.69;48.06
80134;SHT30;69443;51.442;10.564;2023-05-10T15:19:57;23.70;48.10
80134;SHT30;69443;51.442;10.564;2023-05-10T15:22:22;23.66;47.84
80134;SHT30;69443;51.442;10.564;2023-05-10T15:24:47;23.66;47.86
80134;SHT30;69443;51.442;10.564;2023-05-10T15:27:13;23.66;48.04
80134;SHT30;69443;51.442;10.564;2023-05-10T15:29:38;23.65;48.16
80134;SHT30;69443;51.442;10.564;2023-05-10T15:32:04;23.63;47.88